Flight Track Log - Related Links

Times and Time Zones

All times are in EST time to prevent confusion due to time zone crossing. See the FSR411 flight status page for this flight to view local times or setup timezone preferences in your user account.

Time Position Orientation Groundspeed Altitude Reporting Facility
EST Latitude Longitude Course Direction KTS MPH feet Rate Location/Type
Wed 05:11:07 PM 40.1194 -88.3967 299° West 212 244 7,300  Level Chicago Center
Wed 05:12:09 PM 40.1508 -88.4722 299° West 233 268 9,900 1,790 Climbing Chicago Center
Wed 05:13:11 PM 40.1906 -88.5536 303° West 262 302 11,000 532 Climbing Chicago Center
Wed 05:14:13 PM 40.2372 -88.6497 302° West 309 356 11,000  Level Chicago Center
Wed 05:15:15 PM 40.2797 -88.7506 299° West 314 361 11,000  Level Chicago Center
Wed 05:16:18 PM 40.3258 -88.8497 301° West 318 366 11,000  Level Chicago Center
Wed 05:17:20 PM 40.4000 -88.9392 317° Northwest 334 384 11,000  Level Chicago Center
Wed 05:18:22 PM 40.4969 -88.9217 North 353 406 11,000 48 Level Chicago Center
Wed 05:19:24 PM 40.5936 -88.9003 10° North 353 406 11,100 48 Climbing Chicago Center
Wed 05:20:26 PM 40.6917 -88.8797 North 355 409 11,100  Level Chicago Center
Wed 05:21:28 PM 40.7864 -88.8597 North 350 403 11,100  Level Chicago Center
Wed 05:22:30 PM 40.8958 -88.8339 10° North 349 402 11,100 -194 Level Chicago Center
Wed 05:23:32 PM 40.9858 -88.7794 25° Northeast 355 409 10,700 -726 Descending Chicago Center
Wed 05:24:34 PM 41.0619 -88.7428 20° North 308 354 9,600 -1,452 Descending Chicago Center
Wed 05:25:36 PM 41.1294 -88.6975 27° Northeast 279 321 7,700 -1,680 Descending Chicago Center
Wed 05:26:39 PM 41.1972 -88.6425 31° Northeast 282 325 6,100 -864 Descending Chicago Center
Wed 05:27:41 PM 41.2767 -88.5819 30° Northeast 276 318 5,900 -97 Descending Chicago Center
Wed 05:28:43 PM 41.3431 -88.5311 30° Northeast 276 318 5,900  Level Chicago Center
Wed 05:29:45 PM 41.4028 -88.4639 40° Northeast 281 323 5,900  Level Chicago Center
Wed 05:30:47 PM 41.4525 -88.3775 52° Northeast 290 334 5,900  Level Chicago Center
Wed 05:31:49 PM 41.5044 -88.2928 51° Northeast 291 335 5,900  Level Chicago Center
Wed 05:32:51 PM 41.5483 -88.2000 58° Northeast 291 335 5,900 -48 Level Chicago Center
Wed 05:33:53 PM 41.5914 -88.1044 59° Northeast 294 338 5,800 -677 Descending Chicago Center
Wed 05:34:55 PM 41.6433 -87.9928 58° Northeast 293 337 4,500 -919 Descending Chicago Center
Wed 05:35:57 PM 41.6861 -87.9006 58° Northeast 292 336 3,900 -288 Descending Chicago Center
Wed 05:37:00 PM 41.7281 -87.8089 58° Northeast 290 334 3,900  Level Chicago Center
Wed 05:38:02 PM 41.7581 -87.7100 68° East 291 335 3,900 -387 Level Chicago Center
Wed 05:39:04 PM 41.7608 -87.6172 88° East 267 307 3,100 -726 Descending Chicago Center
Wed 05:40:06 PM 41.7764 -87.5528 72° East 222 255 2,400 -339 Descending Chicago Center
Wed 05:41:08 PM 41.8286 -87.5433 North 199 229 2,400  Level Chicago Center
Wed 05:42:10 PM 41.8533 -87.5889 306° West 178 205 2,400 -48 Level Chicago Center
Wed 05:43:12 PM 41.8439 -87.6428 257° West 159 183 2,300 -339 Descending Chicago Center
Wed 05:44:14 PM 41.8364 -87.6886 258° West 143 165 1,700 -484 Descending Chicago Center
Wed 05:45:16 PM 41.8147 -87.7153 223° Southwest 122 140 1,300 -290 Descending Chicago Center
Wed 05:46:18 PM 41.7906 -87.7456 223° Southwest 116 133 1,100 -194 Descending Chicago Center

Login

Don't have an account? Register now (free) for customized features, flight alerts, and more!